createdAt,value
2022-08-22T00:00:17.936Z,19.88
2022-08-22T00:02:43.290Z,20.19
2022-08-22T00:02:49.265Z,20.10
2022-08-22T00:05:56.388Z,19.90
2022-08-22T00:11:18.634Z,19.94
2022-08-22T00:16:34.055Z,19.92
2022-08-22T00:21:49.986Z,19.87
2022-08-22T00:27:17.954Z,19.84
2022-08-22T00:32:35.551Z,19.83
2022-08-22T00:37:46.291Z,19.80
2022-08-22T00:43:08.537Z,19.81
2022-08-22T00:48:33.603Z,19.84
2022-08-22T00:54:06.801Z,19.86
2022-08-22T00:59:45.989Z,19.84
2022-08-22T01:05:00.134Z,19.81
2022-08-22T01:10:24.043Z,19.80
2022-08-22T01:15:30.617Z,19.83
2022-08-22T01:21:11.110Z,19.88
2022-08-22T01:26:22.511Z,19.81
2022-08-22T01:32:05.649Z,19.79
2022-08-22T01:37:33.201Z,19.83
2022-08-22T01:43:00.908Z,19.92
2022-08-22T01:48:14.425Z,19.94
2022-08-22T01:53:36.721Z,19.94
2022-08-22T01:58:59.835Z,19.94
2022-08-22T02:04:10.711Z,19.97
2022-08-22T02:09:40.622Z,20.01
2022-08-22T02:15:05.914Z,20.06
2022-08-22T02:20:24.511Z,20.07
2022-08-22T02:25:33.340Z,20.11
2022-08-22T02:30:55.133Z,20.12
2022-08-22T02:36:04.798Z,20.13
2022-08-22T02:41:19.086Z,20.11
2022-08-22T02:46:30.419Z,20.12
2022-08-22T02:51:46.526Z,20.13
2022-08-22T02:56:57.786Z,20.14
2022-08-22T03:02:28.144Z,20.12
2022-08-22T03:07:39.684Z,20.15
2022-08-22T03:12:45.270Z,20.18
2022-08-22T03:18:00.818Z,20.21
2022-08-22T03:23:17.426Z,20.27
2022-08-22T03:28:27.047Z,20.29
2022-08-22T03:33:31.843Z,20.31
2022-08-22T03:38:34.624Z,20.34
2022-08-22T03:44:08.833Z,20.36
2022-08-22T03:49:32.950Z,20.35
2022-08-22T03:55:26.708Z,20.35
2022-08-22T04:00:37.602Z,20.39
2022-08-22T04:05:59.170Z,20.46
2022-08-22T04:11:21.640Z,20.48
2022-08-22T04:16:51.933Z,20.37
2022-08-22T04:21:54.926Z,20.30
2022-08-22T04:27:16.008Z,20.32
2022-08-22T04:32:36.826Z,20.38
2022-08-22T04:37:51.864Z,20.41
2022-08-22T04:43:06.259Z,20.43
2022-08-22T04:48:33.787Z,20.48
2022-08-22T04:53:48.795Z,20.57
2022-08-22T04:59:02.978Z,20.63
2022-08-22T05:04:10.719Z,20.69
2022-08-22T05:09:22.431Z,20.73
2022-08-22T05:14:34.211Z,20.76
2022-08-22T05:19:43.091Z,20.78
2022-08-22T05:24:49.865Z,20.80
2022-08-22T05:30:01.048Z,20.80
2022-08-22T05:35:08.771Z,20.81
2022-08-22T05:40:20.511Z,20.85
2022-08-22T05:45:26.534Z,20.90
2022-08-22T05:50:35.971Z,20.91
2022-08-22T05:55:39.041Z,20.90
2022-08-22T06:00:45.286Z,20.94
2022-08-22T06:05:53.487Z,20.96
2022-08-22T06:11:03.405Z,21.05
2022-08-22T06:16:12.349Z,21.10
2022-08-22T06:21:33.692Z,21.08
2022-08-22T06:26:48.890Z,21.08
2022-08-22T06:31:52.304Z,21.13
2022-08-22T06:36:57.634Z,21.24
2022-08-22T06:42:10.370Z,21.29
2022-08-22T06:47:26.422Z,21.29
2022-08-22T06:52:33.256Z,21.32
2022-08-22T06:57:43.909Z,21.40
2022-08-22T07:02:54.839Z,21.49
2022-08-22T07:07:58.084Z,21.56
2022-08-22T07:13:01.698Z,21.59
2022-08-22T07:18:27.675Z,21.59
2022-08-22T07:23:46.016Z,21.64
2022-08-22T07:28:58.523Z,21.71
2022-08-22T07:34:38.190Z,21.72
2022-08-22T07:39:58.139Z,21.78
2022-08-22T07:45:20.812Z,21.88
2022-08-22T07:50:29.193Z,21.96
2022-08-22T07:55:32.501Z,21.96
2022-08-22T08:00:43.453Z,21.88
2022-08-22T08:05:46.650Z,21.88
2022-08-22T08:10:52.721Z,21.90
2022-08-22T08:15:56.186Z,21.92
2022-08-22T08:21:04.939Z,21.91
2022-08-22T08:26:16.111Z,21.92
2022-08-22T08:31:38.171Z,22.00
2022-08-22T08:37:04.775Z,22.11
2022-08-22T08:42:22.393Z,22.22
2022-08-22T08:48:14.671Z,22.32
2022-08-22T08:53:27.181Z,22.42
2022-08-22T08:58:35.566Z,22.54
2022-08-22T09:04:02.773Z,22.66
2022-08-22T09:09:25.875Z,22.80
2022-08-22T09:14:50.571Z,22.87
2022-08-22T09:19:56.318Z,22.86
2022-08-22T09:25:19.227Z,22.85
2022-08-22T09:30:55.438Z,22.89
2022-08-22T09:36:07.337Z,22.91
2022-08-22T09:41:33.932Z,22.86
2022-08-22T09:46:56.976Z,22.82
2022-08-22T09:52:15.111Z,22.81
2022-08-22T09:57:41.113Z,22.80
2022-08-22T10:02:49.654Z,22.77
2022-08-22T10:08:05.535Z,22.68
2022-08-22T10:13:40.654Z,22.60
2022-08-22T10:19:05.293Z,22.54
2022-08-22T10:24:43.838Z,22.51
2022-08-22T10:30:08.285Z,22.44
2022-08-22T10:35:33.700Z,22.40
2022-08-22T10:40:39.590Z,22.37
2022-08-22T10:45:51.774Z,22.36
2022-08-22T10:51:08.870Z,22.34
2022-08-22T10:56:21.673Z,22.32
2022-08-22T11:01:37.221Z,22.32
2022-08-22T11:06:47.981Z,22.35
2022-08-22T11:12:34.885Z,22.41
2022-08-22T11:18:02.942Z,22.53
2022-08-22T11:23:32.482Z,22.75
2022-08-22T11:28:41.223Z,23.03
2022-08-22T11:34:03.897Z,23.37
2022-08-22T11:39:43.267Z,23.76
2022-08-22T11:44:54.682Z,24.31
2022-08-22T11:50:42.463Z,24.83
2022-08-22T11:56:05.984Z,25.36
2022-08-22T12:01:17.331Z,25.72
2022-08-22T12:06:46.715Z,25.99
2022-08-22T12:12:01.900Z,26.26
2022-08-22T12:17:55.860Z,26.49
2022-08-22T12:23:40.742Z,26.70
2022-08-22T12:28:56.705Z,26.63
2022-08-22T12:34:31.575Z,26.39
2022-08-22T12:39:46.963Z,26.32
2022-08-22T12:45:21.782Z,26.47
2022-08-22T12:50:35.481Z,26.42
2022-08-22T12:55:55.156Z,26.33
2022-08-22T13:01:06.442Z,26.45
2022-08-22T13:06:37.974Z,26.40
2022-08-22T13:11:43.506Z,26.45
2022-08-22T13:16:52.132Z,26.50
2022-08-22T13:22:11.725Z,26.75
2022-08-22T13:27:20.472Z,27.06
2022-08-22T13:32:39.271Z,27.33
2022-08-22T13:37:50.252Z,27.52
2022-08-22T13:43:02.685Z,27.49
2022-08-22T13:48:12.060Z,27.55
2022-08-22T13:53:29.923Z,27.48
2022-08-22T13:58:45.442Z,27.30
2022-08-22T14:03:59.443Z,27.09
2022-08-22T14:09:29.432Z,27.02
2022-08-22T14:14:38.814Z,26.97
2022-08-22T14:19:58.774Z,26.99
2022-08-22T14:25:24.009Z,27.07
2022-08-22T14:30:54.354Z,27.11
2022-08-22T14:36:13.328Z,26.99
2022-08-22T14:41:52.621Z,26.83
2022-08-22T14:47:00.224Z,26.62
2022-08-22T14:52:10.305Z,26.44
2022-08-22T14:57:22.685Z,26.31
2022-08-22T15:02:29.862Z,26.18
2022-08-22T15:07:36.513Z,26.11
2022-08-22T15:12:48.734Z,26.05
2022-08-22T15:17:52.825Z,25.99
2022-08-22T15:23:03.669Z,25.97
2022-08-22T15:28:14.486Z,25.98
2022-08-22T15:33:29.379Z,25.96
2022-08-22T15:38:38.986Z,25.92
2022-08-22T15:43:49.352Z,25.89
2022-08-22T15:49:19.688Z,25.85
2022-08-22T15:54:46.953Z,25.80
2022-08-22T15:59:57.795Z,25.77
2022-08-22T16:05:09.657Z,25.77
2022-08-22T16:10:21.280Z,25.77
2022-08-22T16:15:56.318Z,25.76
2022-08-22T16:21:04.630Z,25.71
2022-08-22T16:26:09.590Z,25.68
2022-08-22T16:31:18.055Z,25.64
2022-08-22T16:36:21.193Z,25.53
2022-08-22T16:41:34.771Z,25.43
2022-08-22T16:46:41.740Z,25.33
2022-08-22T16:52:26.250Z,25.26
2022-08-22T16:58:04.991Z,25.12
2022-08-22T17:03:27.523Z,24.90
2022-08-22T17:08:45.419Z,24.73
2022-08-22T17:14:09.715Z,24.66
2022-08-22T17:19:32.334Z,24.58
2022-08-22T17:24:46.752Z,24.51
2022-08-22T17:30:16.241Z,24.43
2022-08-22T17:35:44.324Z,24.36
2022-08-22T17:41:18.461Z,24.27
2022-08-22T17:46:36.418Z,24.15
2022-08-22T17:52:07.487Z,24.03
2022-08-22T17:57:38.118Z,23.97
2022-08-22T18:02:43.515Z,23.96
2022-08-22T18:07:55.213Z,23.95
2022-08-22T18:13:21.565Z,23.91
2022-08-22T18:18:35.182Z,23.77
2022-08-22T18:23:54.874Z,23.70
2022-08-22T18:29:01.030Z,23.63
2022-08-22T18:34:16.247Z,23.55
2022-08-22T18:39:22.115Z,23.44
2022-08-22T18:44:27.683Z,23.35
2022-08-22T18:49:30.800Z,23.30
2022-08-22T18:54:49.025Z,23.29
2022-08-22T19:00:00.929Z,23.23
2022-08-22T19:05:13.265Z,23.19
2022-08-22T19:10:34.535Z,23.16
2022-08-22T19:15:56.100Z,23.14
2022-08-22T19:21:45.015Z,23.10
2022-08-22T19:27:10.095Z,23.03
2022-08-22T19:32:44.770Z,22.94
2022-08-22T19:38:00.711Z,22.89
2022-08-22T19:43:18.665Z,22.90
2022-08-22T19:48:31.658Z,22.83
2022-08-22T19:53:42.300Z,22.77
2022-08-22T19:58:54.923Z,22.72
2022-08-22T20:04:10.038Z,22.67
2022-08-22T20:09:32.859Z,22.62
2022-08-22T20:14:40.212Z,22.57
2022-08-22T20:25:41.481Z,22.28
2022-08-22T20:30:47.033Z,22.09
2022-08-22T20:35:59.234Z,21.94
2022-08-22T20:41:17.412Z,21.87
2022-08-22T20:46:53.497Z,21.87
2022-08-22T20:52:04.952Z,21.85
2022-08-22T20:57:19.397Z,21.76
2022-08-22T21:02:29.763Z,21.68
2022-08-22T21:07:42.537Z,21.67
2022-08-22T21:13:11.322Z,21.66
2022-08-22T21:18:36.844Z,21.64
2022-08-22T21:23:59.911Z,21.60
2022-08-22T21:29:05.985Z,21.56
2022-08-22T21:34:18.592Z,21.54
2022-08-22T21:39:25.728Z,21.54
2022-08-22T21:44:31.140Z,21.61
2022-08-22T21:49:34.202Z,21.61
2022-08-22T21:54:40.788Z,21.58
2022-08-22T21:59:51.968Z,21.61
2022-08-22T22:05:11.720Z,21.67
2022-08-22T22:10:19.418Z,21.69
2022-08-22T22:15:25.981Z,21.69
2022-08-22T22:20:28.973Z,21.67
2022-08-22T22:25:38.797Z,21.71
2022-08-22T22:30:45.626Z,21.72
2022-08-22T22:35:49.681Z,21.65
2022-08-22T22:40:53.392Z,21.52
2022-08-22T22:45:56.575Z,21.44
2022-08-22T22:50:59.614Z,21.43
2022-08-22T22:56:02.890Z,21.41
2022-08-22T23:01:18.654Z,21.39
2022-08-22T23:06:23.554Z,21.36
2022-08-22T23:11:29.888Z,21.34
2022-08-22T23:16:37.155Z,21.35
2022-08-22T23:21:41.655Z,21.32
2022-08-22T23:26:44.961Z,21.30
2022-08-22T23:31:55.899Z,21.26
2022-08-22T23:37:00.790Z,21.26
2022-08-22T23:42:07.382Z,21.28
2022-08-22T23:47:10.967Z,21.30
2022-08-22T23:52:14.195Z,21.29
2022-08-22T23:57:17.744Z,21.26
